createdAt,value
2019-05-07T00:00:03.898Z,80.50
2019-05-07T00:02:49.347Z,81.00
2019-05-07T00:05:34.601Z,81.80
2019-05-07T00:08:19.392Z,81.80
2019-05-07T00:11:04.261Z,81.30
2019-05-07T00:13:48.932Z,82.00
2019-05-07T00:16:33.865Z,81.80
2019-05-07T00:19:18.666Z,82.00
2019-05-07T00:22:03.599Z,82.90
2019-05-07T00:24:48.368Z,82.10
2019-05-07T00:27:33.209Z,83.00
2019-05-07T00:30:18.222Z,82.30
2019-05-07T00:33:03.018Z,82.40
2019-05-07T00:35:49.588Z,83.00
2019-05-07T00:38:36.469Z,82.70
2019-05-07T00:41:35.465Z,81.80
2019-05-07T00:44:22.106Z,82.00
2019-05-07T00:47:07.051Z,82.70
2019-05-07T00:49:52.255Z,83.00
2019-05-07T00:52:37.486Z,83.00
2019-05-07T00:55:22.813Z,82.40
2019-05-07T00:58:07.831Z,82.60
2019-05-07T01:00:53.235Z,82.00
2019-05-07T01:03:38.470Z,82.20
2019-05-07T01:06:26.415Z,81.80
2019-05-07T01:09:12.156Z,80.90
2019-05-07T01:11:56.871Z,82.00
2019-05-07T01:14:42.071Z,81.30
2019-05-07T01:17:26.949Z,81.50
2019-05-07T01:20:12.573Z,81.80
2019-05-07T01:22:58.203Z,82.60
2019-05-07T01:25:43.218Z,82.10
2019-05-07T01:28:28.419Z,82.60
2019-05-07T01:31:13.187Z,83.40
2019-05-07T01:33:59.965Z,83.40
2019-05-07T01:36:44.801Z,83.10
2019-05-07T01:39:29.621Z,83.00
2019-05-07T01:42:14.521Z,82.80
2019-05-07T01:44:59.326Z,83.60
2019-05-07T01:47:44.352Z,84.00
2019-05-07T01:50:32.267Z,83.00
2019-05-07T01:53:17.353Z,83.80
2019-05-07T01:56:03.213Z,83.70
2019-05-07T01:58:48.410Z,83.10
2019-05-07T02:01:35.844Z,82.90
2019-05-07T02:04:27.926Z,82.50
2019-05-07T02:07:14.871Z,82.80
2019-05-07T02:10:02.795Z,82.70
2019-05-07T02:12:48.395Z,83.30
2019-05-07T02:15:33.186Z,83.00
2019-05-07T02:18:17.967Z,82.10
2019-05-07T02:21:03.299Z,82.90
2019-05-07T02:23:48.207Z,83.00
2019-05-07T02:26:34.056Z,82.80
2019-05-07T02:29:18.894Z,83.40
2019-05-07T02:32:04.908Z,83.20
2019-05-07T02:34:50.066Z,83.70
2019-05-07T02:37:49.865Z,83.70
2019-05-07T02:40:25.741Z,84.00
2019-05-07T02:43:13.677Z,83.90
2019-05-07T02:46:17.410Z,84.00
2019-05-07T02:48:53.667Z,84.60
2019-05-07T02:51:43.219Z,84.60
2019-05-07T02:54:32.900Z,84.20
2019-05-07T02:57:17.870Z,83.90
2019-05-07T03:00:05.000Z,84.40
2019-05-07T03:02:53.057Z,84.30
2019-05-07T03:05:37.590Z,84.00
2019-05-07T03:08:26.994Z,83.80
2019-05-07T03:11:09.134Z,83.70
2019-05-07T03:13:54.040Z,83.40
2019-05-07T03:16:44.167Z,84.20
2019-05-07T03:19:27.033Z,84.70
2019-05-07T03:22:13.949Z,84.50
2019-05-07T03:25:03.408Z,84.30
2019-05-07T03:27:47.414Z,84.60
2019-05-07T03:30:37.199Z,85.20
2019-05-07T03:33:30.227Z,85.30
2019-05-07T03:36:17.151Z,85.10
2019-05-07T03:39:03.488Z,84.60
2019-05-07T03:41:48.968Z,85.00
2019-05-07T03:44:44.521Z,85.60
2019-05-07T03:47:38.998Z,85.30
2019-05-07T03:50:24.894Z,85.40
2019-05-07T03:53:09.658Z,85.70
2019-05-07T03:55:54.493Z,85.80
2019-05-07T03:58:39.257Z,85.20
2019-05-07T04:01:24.248Z,84.90
2019-05-07T04:04:09.258Z,85.10
2019-05-07T04:06:54.038Z,84.80
2019-05-07T04:09:39.041Z,84.80
2019-05-07T04:12:24.226Z,84.70
2019-05-07T04:15:09.554Z,84.70
2019-05-07T04:17:54.727Z,85.50
2019-05-07T04:20:43.165Z,83.60
2019-05-07T04:23:26.339Z,83.70
2019-05-07T04:26:15.945Z,84.00
2019-05-07T04:29:05.536Z,84.50
2019-05-07T04:31:49.850Z,83.50
2019-05-07T04:34:53.485Z,83.80
2019-05-07T04:37:38.602Z,84.30
2019-05-07T04:40:24.212Z,84.20
2019-05-07T04:43:09.485Z,84.80
2019-05-07T04:46:08.039Z,84.70
2019-05-07T04:48:53.118Z,84.80
2019-05-07T04:51:43.532Z,84.80
2019-05-07T04:54:28.751Z,83.50
2019-05-07T04:57:18.185Z,84.10
2019-05-07T05:00:04.540Z,83.40
2019-05-07T05:02:53.078Z,83.60
2019-05-07T05:05:38.499Z,83.10
2019-05-07T05:08:23.644Z,82.70
2019-05-07T05:11:12.585Z,83.20
2019-05-07T05:13:57.000Z,82.80
2019-05-07T05:16:42.490Z,82.20
2019-05-07T05:19:27.862Z,80.90
2019-05-07T05:22:23.598Z,81.40
2019-05-07T05:25:28.302Z,80.20
2019-05-07T05:28:13.676Z,79.90
2019-05-07T05:31:00.733Z,80.20
2019-05-07T05:33:45.866Z,79.40
2019-05-07T05:36:32.765Z,79.00
2019-05-07T05:39:17.450Z,79.10
2019-05-07T05:42:04.350Z,78.30
2019-05-07T05:44:49.482Z,75.00
2019-05-07T05:47:34.580Z,76.20
2019-05-07T05:50:19.219Z,74.80
2019-05-07T05:53:06.068Z,72.10
2019-05-07T05:55:52.817Z,72.40
2019-05-07T05:58:39.652Z,69.50
2019-05-07T06:01:43.342Z,70.30
2019-05-07T06:04:35.827Z,69.60
2019-05-07T06:07:23.078Z,69.60
2019-05-07T06:10:15.596Z,69.30
2019-05-07T06:13:17.804Z,68.10
2019-05-07T06:16:07.131Z,67.40
2019-05-07T06:18:53.926Z,69.20
2019-05-07T06:21:58.674Z,69.00
2019-05-07T06:24:48.461Z,68.00
2019-05-07T06:27:33.143Z,68.50
2019-05-07T06:30:18.769Z,67.80
2019-05-07T06:33:04.081Z,67.60
2019-05-07T06:35:48.925Z,67.70
2019-05-07T06:38:38.436Z,67.90
2019-05-07T06:41:26.685Z,66.90
2019-05-07T06:44:13.464Z,66.00
2019-05-07T06:46:58.629Z,63.70
2019-05-07T06:49:43.810Z,65.10
2019-05-07T06:52:28.586Z,61.70
2019-05-07T06:55:13.759Z,61.40
2019-05-07T06:57:58.806Z,64.40
2019-05-07T07:00:45.832Z,63.70
2019-05-07T07:03:35.323Z,61.40
2019-05-07T07:06:25.472Z,60.00
2019-05-07T07:09:22.270Z,63.30
2019-05-07T07:12:12.886Z,60.00
2019-05-07T07:14:58.275Z,59.20
2019-05-07T07:17:43.478Z,60.90
2019-05-07T07:20:32.445Z,61.10
2019-05-07T07:23:17.203Z,61.50
2019-05-07T07:26:03.167Z,62.10
2019-05-07T07:28:48.224Z,61.30
2019-05-07T07:31:34.904Z,58.30
2019-05-07T07:34:22.561Z,57.70
2019-05-07T07:37:23.842Z,57.10
2019-05-07T07:40:22.291Z,58.10
2019-05-07T07:43:07.378Z,56.50
2019-05-07T07:45:52.878Z,56.20
2019-05-07T07:48:37.747Z,56.50
2019-05-07T07:51:37.298Z,56.60
2019-05-07T07:54:09.735Z,57.40
2019-05-07T07:57:02.404Z,56.60
2019-05-07T07:59:49.298Z,55.50
2019-05-07T08:02:36.127Z,55.90
2019-05-07T08:05:21.914Z,53.70
2019-05-07T08:08:07.033Z,54.20
2019-05-07T08:10:52.199Z,52.60
2019-05-07T08:13:37.042Z,52.90
2019-05-07T08:16:22.342Z,53.30
2019-05-07T08:19:21.380Z,53.30
2019-05-07T08:21:54.745Z,51.20
2019-05-07T08:24:39.430Z,51.90
2019-05-07T08:27:25.412Z,52.20
2019-05-07T08:30:12.408Z,50.90
2019-05-07T08:32:59.177Z,50.60
2019-05-07T08:35:45.662Z,51.80
2019-05-07T08:38:32.799Z,49.80
2019-05-07T08:41:22.353Z,48.70
2019-05-07T08:44:12.356Z,47.00
2019-05-07T08:46:57.701Z,46.60
2019-05-07T08:49:43.468Z,46.20
2019-05-07T08:52:28.670Z,47.50
2019-05-07T08:55:13.685Z,47.90
2019-05-07T08:57:59.049Z,46.00
2019-05-07T09:00:45.157Z,46.80
2019-05-07T09:03:43.171Z,45.50
2019-05-07T09:06:34.328Z,45.90
2019-05-07T09:09:22.042Z,44.20
2019-05-07T09:12:06.430Z,41.60
2019-05-07T09:14:52.969Z,41.50
2019-05-07T09:17:38.275Z,39.90
2019-05-07T09:20:23.078Z,41.60
2019-05-07T09:23:07.720Z,44.60
2019-05-07T09:25:52.649Z,42.70
2019-05-07T09:28:54.507Z,42.20
2019-05-07T09:31:52.536Z,40.90
2019-05-07T09:34:41.582Z,40.40
2019-05-07T09:37:32.450Z,41.80
2019-05-07T09:40:17.673Z,41.50
2019-05-07T09:43:03.024Z,45.30
2019-05-07T09:45:48.141Z,43.70
2019-05-07T09:48:33.878Z,42.20
2019-05-07T09:51:19.576Z,40.70
2019-05-07T09:54:04.218Z,39.10
2019-05-07T09:56:49.194Z,42.20
2019-05-07T09:59:34.365Z,41.50
2019-05-07T10:02:19.299Z,40.70
2019-05-07T10:05:05.173Z,42.20
2019-05-07T10:07:52.487Z,41.00
2019-05-07T10:10:37.559Z,38.40
2019-05-07T10:13:33.474Z,38.30
2019-05-07T10:16:35.856Z,40.10
2019-05-07T10:19:22.233Z,39.20
2019-05-07T10:22:07.333Z,34.60
2019-05-07T10:24:52.581Z,39.60
2019-05-07T10:27:39.317Z,36.20
2019-05-07T10:30:24.329Z,36.50
2019-05-07T10:33:09.270Z,37.00
2019-05-07T10:35:54.450Z,38.10
2019-05-07T10:38:39.124Z,37.10
2019-05-07T10:41:24.120Z,34.70
2019-05-07T10:44:11.884Z,35.30
2019-05-07T10:47:15.525Z,34.90
2019-05-07T10:50:17.731Z,35.10
2019-05-07T10:53:03.145Z,35.20
2019-05-07T10:55:48.303Z,36.90
2019-05-07T10:58:33.002Z,32.70
2019-05-07T11:01:22.426Z,35.30
2019-05-07T11:04:07.565Z,33.20
2019-05-07T11:06:52.452Z,35.70
2019-05-07T11:09:37.598Z,34.80
2019-05-07T11:12:22.911Z,36.70
2019-05-07T11:15:09.390Z,34.50
2019-05-07T11:17:56.274Z,32.90
2019-05-07T11:20:49.893Z,32.70
2019-05-07T11:23:29.153Z,33.30
2019-05-07T11:26:14.105Z,35.50
2019-05-07T11:28:59.032Z,34.20
2019-05-07T11:31:43.838Z,34.10
2019-05-07T11:34:32.616Z,32.10
2019-05-07T11:37:17.594Z,31.90
2019-05-07T11:40:04.000Z,29.70
2019-05-07T11:43:03.017Z,29.10
2019-05-07T11:45:54.025Z,28.60
2019-05-07T11:48:38.879Z,26.70
2019-05-07T11:51:34.935Z,26.70
2019-05-07T11:54:19.983Z,27.80
2019-05-07T11:57:05.122Z,29.00
2019-05-07T11:59:51.617Z,27.10
2019-05-07T12:02:38.242Z,26.70
2019-05-07T12:05:28.078Z,26.00
2019-05-07T12:08:13.216Z,24.60
2019-05-07T12:10:58.105Z,25.90
2019-05-07T12:13:42.936Z,27.20
2019-05-07T12:16:27.750Z,28.70
2019-05-07T12:19:16.316Z,26.40
2019-05-07T12:22:02.634Z,25.70
2019-05-07T12:24:47.925Z,24.50
2019-05-07T12:27:33.033Z,25.00
2019-05-07T12:30:37.717Z,26.90
2019-05-07T12:33:32.475Z,25.80
2019-05-07T12:36:18.548Z,25.30
2019-05-07T12:39:06.023Z,25.70
2019-05-07T12:41:52.541Z,25.70
2019-05-07T12:44:37.391Z,26.80
2019-05-07T12:47:22.564Z,27.10
2019-05-07T12:50:08.812Z,28.50
2019-05-07T12:52:58.403Z,29.00
2019-05-07T12:55:51.817Z,29.40
2019-05-07T12:58:36.805Z,27.00
2019-05-07T13:01:32.812Z,26.10
2019-05-07T13:04:37.909Z,27.30
2019-05-07T13:07:24.965Z,28.00
2019-05-07T13:10:10.137Z,26.70
2019-05-07T13:12:55.120Z,28.00
2019-05-07T13:15:43.092Z,26.60
2019-05-07T13:18:26.823Z,27.60
2019-05-07T13:21:11.998Z,27.40
2019-05-07T13:23:56.887Z,26.80
2019-05-07T13:26:42.739Z,27.60
2019-05-07T13:29:27.498Z,27.10
2019-05-07T13:32:12.995Z,27.30
2019-05-07T13:34:58.785Z,24.60
2019-05-07T13:37:51.745Z,26.10
2019-05-07T13:40:42.311Z,27.10
2019-05-07T13:43:29.266Z,27.90
2019-05-07T13:46:15.155Z,29.50
2019-05-07T13:49:02.088Z,27.90
2019-05-07T13:51:59.786Z,28.40
2019-05-07T13:54:35.356Z,30.00
2019-05-07T13:57:22.532Z,28.70
2019-05-07T14:00:12.818Z,28.50
2019-05-07T14:02:58.295Z,30.80
2019-05-07T14:05:43.850Z,29.70
2019-05-07T14:08:32.033Z,29.30
2019-05-07T14:11:17.878Z,29.40
2019-05-07T14:14:03.088Z,31.30
2019-05-07T14:16:48.081Z,30.60
2019-05-07T14:19:33.192Z,31.00
2019-05-07T14:22:19.320Z,31.80
2019-05-07T14:25:05.262Z,33.40
2019-05-07T14:27:50.050Z,30.30
2019-05-07T14:30:34.818Z,28.80
2019-05-07T14:33:36.801Z,28.80
2019-05-07T14:36:42.516Z,28.80
2019-05-07T14:39:27.177Z,29.10
2019-05-07T14:42:14.014Z,28.50
2019-05-07T14:44:59.129Z,29.60
2019-05-07T14:47:44.720Z,28.80
2019-05-07T14:50:30.313Z,27.50
2019-05-07T14:53:15.118Z,29.00
2019-05-07T14:56:00.251Z,28.20
2019-05-07T14:58:45.324Z,26.80
2019-05-07T15:01:30.373Z,26.10
2019-05-07T15:04:15.529Z,25.70
2019-05-07T15:07:02.429Z,25.00
2019-05-07T15:09:47.809Z,25.80
2019-05-07T15:12:33.031Z,25.30
2019-05-07T15:15:18.607Z,26.10
2019-05-07T15:18:08.314Z,26.00
2019-05-07T15:20:53.672Z,26.40
2019-05-07T15:23:42.289Z,28.00
2019-05-07T15:26:27.319Z,28.10
2019-05-07T15:29:13.295Z,27.70
2019-05-07T15:31:59.987Z,27.50
2019-05-07T15:34:44.961Z,26.80
2019-05-07T15:37:32.173Z,27.60
2019-05-07T15:40:17.682Z,27.10
2019-05-07T15:43:02.611Z,27.80
2019-05-07T15:45:47.627Z,27.60
2019-05-07T15:48:32.767Z,28.00
2019-05-07T15:51:17.549Z,27.50
2019-05-07T15:54:03.581Z,27.90
2019-05-07T15:56:48.413Z,28.00
2019-05-07T15:59:33.246Z,27.70
2019-05-07T16:02:22.815Z,28.80
2019-05-07T16:05:08.613Z,28.00
2019-05-07T16:07:54.634Z,28.50
2019-05-07T16:10:39.561Z,28.40
2019-05-07T16:13:26.279Z,26.50
2019-05-07T16:16:11.563Z,27.40
2019-05-07T16:19:04.593Z,28.30
2019-05-07T16:21:50.858Z,27.80
2019-05-07T16:24:35.884Z,28.50
2019-05-07T16:27:22.435Z,29.30
2019-05-07T16:30:08.249Z,29.80
2019-05-07T16:32:55.428Z,29.10
2019-05-07T16:35:42.336Z,29.60
2019-05-07T16:38:27.061Z,28.60
2019-05-07T16:41:13.592Z,29.90
2019-05-07T16:43:58.872Z,29.40
2019-05-07T16:46:43.696Z,30.20
2019-05-07T16:49:28.468Z,29.80
2019-05-07T16:52:13.291Z,30.30
2019-05-07T16:54:58.198Z,32.20
2019-05-07T16:57:58.869Z,31.50
2019-05-07T17:00:46.422Z,32.60
2019-05-07T17:03:33.280Z,31.30
2019-05-07T17:06:17.853Z,33.50
2019-05-07T17:09:06.257Z,33.70
2019-05-07T17:11:52.787Z,33.00
2019-05-07T17:14:37.461Z,32.70
2019-05-07T17:17:22.490Z,32.70
2019-05-07T17:20:08.384Z,34.10
2019-05-07T17:22:54.377Z,33.70
2019-05-07T17:25:39.367Z,33.50
2019-05-07T17:28:24.149Z,33.20
2019-05-07T17:31:08.934Z,35.40
2019-05-07T17:33:54.230Z,34.60
2019-05-07T17:36:41.910Z,35.00
2019-05-07T17:39:26.475Z,34.70
2019-05-07T17:42:11.871Z,36.30
2019-05-07T17:44:56.693Z,37.20
2019-05-07T17:47:42.461Z,38.40
2019-05-07T17:50:35.630Z,40.70
2019-05-07T17:53:22.407Z,37.70
2019-05-07T17:56:07.273Z,38.40
2019-05-07T17:58:52.305Z,42.60
2019-05-07T18:01:50.099Z,40.40
2019-05-07T18:04:50.477Z,39.50
2019-05-07T18:07:24.385Z,41.20
2019-05-07T18:10:09.435Z,42.30
2019-05-07T18:12:55.447Z,45.30
2019-05-07T18:15:42.629Z,45.20
2019-05-07T18:18:27.252Z,46.80
2019-05-07T18:21:12.579Z,44.60
2019-05-07T18:24:16.469Z,45.70
2019-05-07T18:26:58.441Z,45.60
2019-05-07T18:29:43.186Z,46.10
2019-05-07T18:32:32.291Z,48.30
2019-05-07T18:35:16.598Z,47.60
2019-05-07T18:38:02.623Z,49.20
2019-05-07T18:40:47.714Z,48.50
2019-05-07T18:43:33.191Z,49.50
2019-05-07T18:46:18.345Z,51.40
2019-05-07T18:49:03.505Z,51.30
2019-05-07T18:51:48.672Z,51.80
2019-05-07T18:54:33.423Z,54.30
2019-05-07T18:57:18.550Z,56.10
2019-05-07T19:00:36.695Z,57.70
2019-05-07T19:03:22.004Z,57.30
2019-05-07T19:06:07.042Z,58.70
2019-05-07T19:08:52.662Z,59.70
2019-05-07T19:11:39.183Z,58.90
2019-05-07T19:14:23.800Z,58.00
2019-05-07T19:17:09.398Z,59.40
2019-05-07T19:19:54.366Z,58.30
2019-05-07T19:22:39.462Z,57.80
2019-05-07T19:25:24.933Z,59.00
2019-05-07T19:28:12.769Z,59.30
2019-05-07T19:30:57.428Z,59.20
2019-05-07T19:33:42.394Z,59.20
2019-05-07T19:36:27.801Z,60.60
2019-05-07T19:39:12.999Z,61.10
2019-05-07T19:41:58.380Z,61.70
2019-05-07T19:44:43.541Z,62.70
2019-05-07T19:47:28.388Z,63.20
2019-05-07T19:50:13.951Z,62.40
2019-05-07T19:52:58.975Z,61.00
2019-05-07T19:56:03.822Z,61.80
2019-05-07T19:58:49.296Z,63.30
2019-05-07T20:01:36.233Z,63.10
2019-05-07T20:04:21.267Z,62.90
2019-05-07T20:07:06.044Z,62.20
2019-05-07T20:09:52.468Z,62.80
2019-05-07T20:12:37.729Z,64.80
2019-05-07T20:15:29.419Z,64.30
2019-05-07T20:18:14.285Z,63.20
2019-05-07T20:20:59.337Z,62.80
2019-05-07T20:23:44.547Z,64.70
2019-05-07T20:26:29.389Z,64.80
2019-05-07T20:29:14.646Z,64.50
2019-05-07T20:31:59.831Z,63.30
2019-05-07T20:34:45.306Z,61.90
2019-05-07T20:37:32.425Z,61.20
2019-05-07T20:40:17.395Z,61.30
2019-05-07T20:43:02.573Z,62.30
2019-05-07T20:45:47.803Z,63.60
2019-05-07T20:48:32.740Z,62.30
2019-05-07T20:51:17.969Z,64.90
2019-05-07T20:54:07.497Z,65.00
2019-05-07T20:56:54.843Z,64.10
2019-05-07T20:59:40.153Z,64.70
2019-05-07T21:02:25.428Z,66.10
2019-05-07T21:05:10.309Z,64.50
2019-05-07T21:07:55.403Z,64.70
2019-05-07T21:10:42.440Z,64.20
2019-05-07T21:13:31.511Z,65.30
2019-05-07T21:16:13.930Z,65.50
2019-05-07T21:18:58.610Z,66.20
2019-05-07T21:21:43.397Z,63.80
2019-05-07T21:24:28.238Z,64.90
2019-05-07T21:27:12.875Z,64.40
2019-05-07T21:29:57.866Z,59.80
2019-05-07T21:32:42.741Z,60.90
2019-05-07T21:35:27.782Z,58.60
2019-05-07T21:38:12.810Z,59.30
2019-05-07T21:40:57.978Z,60.90
2019-05-07T21:43:46.082Z,62.60
2019-05-07T21:46:29.930Z,62.10
2019-05-07T21:49:14.789Z,64.10
2019-05-07T21:52:01.745Z,59.40
2019-05-07T21:54:48.523Z,59.30
2019-05-07T21:57:38.660Z,59.30
2019-05-07T22:00:32.697Z,60.10
2019-05-07T22:03:20.145Z,61.50
2019-05-07T22:06:05.341Z,64.90
2019-05-07T22:08:50.010Z,65.30
2019-05-07T22:11:34.786Z,64.50
2019-05-07T22:14:19.534Z,69.40
2019-05-07T22:17:04.932Z,70.30
2019-05-07T22:19:52.338Z,68.70
2019-05-07T22:22:36.730Z,67.80
2019-05-07T22:25:22.173Z,68.10
2019-05-07T22:28:09.146Z,67.60
2019-05-07T22:30:58.762Z,67.70
2019-05-07T22:33:48.550Z,67.40
2019-05-07T22:36:33.197Z,68.20
2019-05-07T22:39:36.977Z,66.70
2019-05-07T22:42:24.085Z,69.40
2019-05-07T22:45:12.116Z,70.40
2019-05-07T22:47:57.501Z,70.30
2019-05-07T22:50:44.062Z,71.80
2019-05-07T22:53:29.260Z,73.40
2019-05-07T22:56:14.219Z,72.90
2019-05-07T22:58:58.881Z,71.80
2019-05-07T23:01:43.735Z,70.20
2019-05-07T23:04:28.714Z,70.20
2019-05-07T23:07:13.548Z,69.40
2019-05-07T23:09:58.702Z,69.20
2019-05-07T23:12:43.445Z,68.60
2019-05-07T23:15:28.289Z,69.30
2019-05-07T23:18:13.135Z,72.20
2019-05-07T23:20:58.298Z,70.40
2019-05-07T23:23:43.080Z,70.40
2019-05-07T23:26:28.012Z,70.70
2019-05-07T23:29:12.746Z,72.90
2019-05-07T23:31:57.520Z,73.50
2019-05-07T23:34:42.399Z,74.50
2019-05-07T23:37:27.213Z,73.80
2019-05-07T23:40:16.715Z,71.60
2019-05-07T23:43:03.805Z,71.80
2019-05-07T23:45:48.696Z,71.70
2019-05-07T23:48:33.581Z,72.00
2019-05-07T23:51:18.180Z,73.20
2019-05-07T23:54:03.595Z,73.60
2019-05-07T23:57:04.485Z,73.00
2019-05-07T23:59:35.440Z,72.10
